METAR VMMC 230230Z 33004KT 300V360 9999 FEW020 30/26 Q1002 TEMPO 4000 SHRA=

 

Decoded METAR in plain language

Contents of Report

Code

Information

Report Type  

METAR

Aviation Routine Weather Report

Location

VMMC

Macao, China

Time of the Observation

230230Z

23/08/2018 02:30:00 UTC

Surface Wind Direction and Speed

33004KT 300V360

mean direction 330 degrees, speed 4 knots; varying between 300 and 360 degrees

Visibility

9999

10 kilometres or more

Present Weather

 

 

Cloud

FEW020

amount 1-2 oktas; base 2000 feet

Air Temperature and Dew-Point Temperature

30/26

air temperature 30°C
dew point temperature 26°C

Pressure (QNH)  

Q1002

1002 hPa

Trend Forecasts During Next Two Hours

TEMPO 4000 SHRA

temporarily
visibility: 4000 metres
weather: rain shower

 

OTHER INTERNATIONAL AIRPORTS